sensor_id;sensor_type;location;lat;lon;timestamp;temperature;humidity
39919;DHT22;25589;51.552;13.424;2024-01-27T00:01:36;5.70;99.90
39919;DHT22;25589;51.552;13.424;2024-01-27T00:06:28;5.60;99.90
39919;DHT22;25589;51.552;13.424;2024-01-27T00:08:53;5.70;99.90
39919;DHT22;25589;51.552;13.424;2024-01-27T00:11:19;5.70;99.90
39919;DHT22;25589;51.552;13.424;2024-01-27T00:16:12;5.60;99.90
39919;DHT22;25589;51.552;13.424;2024-01-27T00:18:38;5.70;99.90
39919;DHT22;25589;51.552;13.424;2024-01-27T00:21:07;6.10;99.90
39919;DHT22;25589;51.552;13.424;2024-01-27T00:23:33;5.00;99.90
39919;DHT22;25589;51.552;13.424;2024-01-27T00:26:00;5.50;99.90
39919;DHT22;25589;51.552;13.424;2024-01-27T00:28:26;5.90;99.90
39919;DHT22;25589;51.552;13.424;2024-01-27T00:33:18;5.50;99.90
39919;DHT22;25589;51.552;13.424;2024-01-27T00:35:43;5.70;99.90
39919;DHT22;25589;51.552;13.424;2024-01-27T00:38:09;5.90;99.90
39919;DHT22;25589;51.552;13.424;2024-01-27T00:40:35;5.50;99.90
39919;DHT22;25589;51.552;13.424;2024-01-27T00:45:28;6.30;99.90
39919;DHT22;25589;51.552;13.424;2024-01-27T00:47:55;5.60;99.90
39919;DHT22;25589;51.552;13.424;2024-01-27T00:50:21;6.10;99.90
39919;DHT22;25589;51.552;13.424;2024-01-27T00:52:47;5.60;99.90
39919;DHT22;25589;51.552;13.424;2024-01-27T00:55:12;5.60;99.90
39919;DHT22;25589;51.552;13.424;2024-01-27T00:57:38;6.30;99.90
39919;DHT22;25589;51.552;13.424;2024-01-27T01:00:08;5.60;99.90
39919;DHT22;25589;51.552;13.424;2024-01-27T01:02:35;5.60;99.90
39919;DHT22;25589;51.552;13.424;2024-01-27T01:05:01;5.60;99.90
39919;DHT22;25589;51.552;13.424;2024-01-27T01:07:32;5.30;99.90
39919;DHT22;25589;51.552;13.424;2024-01-27T01:09:57;6.30;99.90
39919;DHT22;25589;51.552;13.424;2024-01-27T01:12:23;5.60;99.90
39919;DHT22;25589;51.552;13.424;2024-01-27T01:14:51;5.60;99.90
39919;DHT22;25589;51.552;13.424;2024-01-27T01:17:16;5.70;99.90
39919;DHT22;25589;51.552;13.424;2024-01-27T01:19:42;5.70;99.90
39919;DHT22;25589;51.552;13.424;2024-01-27T01:22:07;6.00;99.90
39919;DHT22;25589;51.552;13.424;2024-01-27T01:24:33;5.00;99.90
39919;DHT22;25589;51.552;13.424;2024-01-27T01:29:25;5.50;99.90
39919;DHT22;25589;51.552;13.424;2024-01-27T01:31:53;5.50;99.90
39919;DHT22;25589;51.552;13.424;2024-01-27T01:34:19;5.50;99.90
39919;DHT22;25589;51.552;13.424;2024-01-27T01:36:44;5.50;99.90
39919;DHT22;25589;51.552;13.424;2024-01-27T01:39:11;5.60;99.90
39919;DHT22;25589;51.552;13.424;2024-01-27T01:41:38;5.50;99.90
39919;DHT22;25589;51.552;13.424;2024-01-27T01:44:04;5.50;99.90
39919;DHT22;25589;51.552;13.424;2024-01-27T01:46:29;5.50;99.90
39919;DHT22;25589;51.552;13.424;2024-01-27T01:48:55;5.40;99.90
39919;DHT22;25589;51.552;13.424;2024-01-27T01:51:22;5.10;99.90
39919;DHT22;25589;51.552;13.424;2024-01-27T01:53:48;5.60;99.90
39919;DHT22;25589;51.552;13.424;2024-01-27T01:56:15;5.90;99.90
39919;DHT22;25589;51.552;13.424;2024-01-27T01:58:42;5.30;99.90
39919;DHT22;25589;51.552;13.424;2024-01-27T02:01:08;5.00;99.90
39919;DHT22;25589;51.552;13.424;2024-01-27T02:03:34;5.40;99.90
39919;DHT22;25589;51.552;13.424;2024-01-27T02:05:59;6.00;99.90
39919;DHT22;25589;51.552;13.424;2024-01-27T02:08:25;5.40;99.90
39919;DHT22;25589;51.552;13.424;2024-01-27T02:10:51;5.40;99.90
39919;DHT22;25589;51.552;13.424;2024-01-27T02:13:22;6.40;99.90
39919;DHT22;25589;51.552;13.424;2024-01-27T02:18:15;6.40;99.90
39919;DHT22;25589;51.552;13.424;2024-01-27T02:20:41;5.00;99.90
39919;DHT22;25589;51.552;13.424;2024-01-27T02:23:06;5.40;99.90
39919;DHT22;25589;51.552;13.424;2024-01-27T02:25:33;5.40;99.90
39919;DHT22;25589;51.552;13.424;2024-01-27T02:27:59;6.50;99.90
39919;DHT22;25589;51.552;13.424;2024-01-27T02:30:24;5.60;99.90
39919;DHT22;25589;51.552;13.424;2024-01-27T02:32:51;5.40;99.90
39919;DHT22;25589;51.552;13.424;2024-01-27T02:35:16;5.40;99.90
39919;DHT22;25589;51.552;13.424;2024-01-27T02:37:42;5.40;99.90
39919;DHT22;25589;51.552;13.424;2024-01-27T02:40:08;4.60;99.90
39919;DHT22;25589;51.552;13.424;2024-01-27T02:42:37;5.40;99.90
39919;DHT22;25589;51.552;13.424;2024-01-27T02:45:03;5.30;99.90
39919;DHT22;25589;51.552;13.424;2024-01-27T02:47:29;5.40;99.90
39919;DHT22;25589;51.552;13.424;2024-01-27T02:49:54;5.80;99.90
39919;DHT22;25589;51.552;13.424;2024-01-27T02:52:20;5.40;99.90
39919;DHT22;25589;51.552;13.424;2024-01-27T02:54:46;6.30;99.90
39919;DHT22;25589;51.552;13.424;2024-01-27T02:57:12;5.50;99.90
39919;DHT22;25589;51.552;13.424;2024-01-27T03:02:07;5.50;99.90
39919;DHT22;25589;51.552;13.424;2024-01-27T03:04:33;5.10;99.90
39919;DHT22;25589;51.552;13.424;2024-01-27T03:06:59;5.50;99.90
39919;DHT22;25589;51.552;13.424;2024-01-27T03:09:25;5.50;99.90
39919;DHT22;25589;51.552;13.424;2024-01-27T03:11:50;6.20;99.90
39919;DHT22;25589;51.552;13.424;2024-01-27T03:14:16;5.50;99.90
39919;DHT22;25589;51.552;13.424;2024-01-27T03:16:43;5.60;99.90
39919;DHT22;25589;51.552;13.424;2024-01-27T03:19:10;5.50;99.90
39919;DHT22;25589;51.552;13.424;2024-01-27T03:21:36;5.50;99.90
39919;DHT22;25589;51.552;13.424;2024-01-27T03:24:01;5.80;99.90
39919;DHT22;25589;51.552;13.424;2024-01-27T03:26:27;5.50;99.90
39919;DHT22;25589;51.552;13.424;2024-01-27T03:28:53;5.70;99.90
39919;DHT22;25589;51.552;13.424;2024-01-27T03:31:18;5.60;99.90
39919;DHT22;25589;51.552;13.424;2024-01-27T03:33:44;5.40;99.90
39919;DHT22;25589;51.552;13.424;2024-01-27T03:36:11;5.50;99.90
39919;DHT22;25589;51.552;13.424;2024-01-27T03:38:37;5.50;99.90
39919;DHT22;25589;51.552;13.424;2024-01-27T03:41:04;4.90;99.90
39919;DHT22;25589;51.552;13.424;2024-01-27T03:43:30;4.40;99.90
39919;DHT22;25589;51.552;13.424;2024-01-27T03:45:57;6.80;99.90
39919;DHT22;25589;51.552;13.424;2024-01-27T03:48:23;5.30;99.90
39919;DHT22;25589;51.552;13.424;2024-01-27T03:50:48;5.40;99.90
39919;DHT22;25589;51.552;13.424;2024-01-27T03:53:14;5.40;99.90
39919;DHT22;25589;51.552;13.424;2024-01-27T03:55:39;5.30;99.90
39919;DHT22;25589;51.552;13.424;2024-01-27T04:00:32;5.20;99.90
39919;DHT22;25589;51.552;13.424;2024-01-27T04:03:01;5.20;99.90
39919;DHT22;25589;51.552;13.424;2024-01-27T04:05:31;5.10;99.90
39919;DHT22;25589;51.552;13.424;2024-01-27T04:07:56;5.20;99.90
39919;DHT22;25589;51.552;13.424;2024-01-27T04:10:22;6.00;99.90
39919;DHT22;25589;51.552;13.424;2024-01-27T04:12:48;6.30;99.90
39919;DHT22;25589;51.552;13.424;2024-01-27T04:15:14;5.00;99.90
39919;DHT22;25589;51.552;13.424;2024-01-27T04:20:09;5.10;99.90
39919;DHT22;25589;51.552;13.424;2024-01-27T04:22:35;5.10;99.90
39919;DHT22;25589;51.552;13.424;2024-01-27T04:25:01;5.10;99.90
39919;DHT22;25589;51.552;13.424;2024-01-27T04:27:27;5.10;99.90
39919;DHT22;25589;51.552;13.424;2024-01-27T04:29:53;5.10;99.90
39919;DHT22;25589;51.552;13.424;2024-01-27T04:32:19;5.60;99.90
39919;DHT22;25589;51.552;13.424;2024-01-27T04:34:45;5.10;99.90
39919;DHT22;25589;51.552;13.424;2024-01-27T04:37:11;5.70;99.90
39919;DHT22;25589;51.552;13.424;2024-01-27T04:39:37;5.20;99.90
39919;DHT22;25589;51.552;13.424;2024-01-27T04:42:03;5.60;99.90
39919;DHT22;25589;51.552;13.424;2024-01-27T04:44:29;5.50;99.90
39919;DHT22;25589;51.552;13.424;2024-01-27T04:46:54;5.30;99.90
39919;DHT22;25589;51.552;13.424;2024-01-27T04:49:20;6.30;99.90
39919;DHT22;25589;51.552;13.424;2024-01-27T04:51:46;4.70;99.90
39919;DHT22;25589;51.552;13.424;2024-01-27T04:54:11;5.30;99.90
39919;DHT22;25589;51.552;13.424;2024-01-27T04:56:37;5.10;99.90
39919;DHT22;25589;51.552;13.424;2024-01-27T04:59:02;5.10;99.90
39919;DHT22;25589;51.552;13.424;2024-01-27T05:01:28;5.20;99.90
39919;DHT22;25589;51.552;13.424;2024-01-27T05:03:54;5.70;99.90
39919;DHT22;25589;51.552;13.424;2024-01-27T05:06:19;4.70;99.90
39919;DHT22;25589;51.552;13.424;2024-01-27T05:08:45;5.20;99.90
39919;DHT22;25589;51.552;13.424;2024-01-27T05:11:10;5.20;99.90
39919;DHT22;25589;51.552;13.424;2024-01-27T05:13:37;5.30;99.90
39919;DHT22;25589;51.552;13.424;2024-01-27T05:16:05;5.30;99.90
39919;DHT22;25589;51.552;13.424;2024-01-27T05:18:31;4.50;99.90
39919;DHT22;25589;51.552;13.424;2024-01-27T05:20:56;5.10;99.90
39919;DHT22;25589;51.552;13.424;2024-01-27T05:23:22;5.20;99.90
39919;DHT22;25589;51.552;13.424;2024-01-27T05:25:48;5.20;99.90
39919;DHT22;25589;51.552;13.424;2024-01-27T05:28:14;5.70;99.90
39919;DHT22;25589;51.552;13.424;2024-01-27T05:30:40;5.20;99.90
39919;DHT22;25589;51.552;13.424;2024-01-27T05:33:05;5.40;99.90
39919;DHT22;25589;51.552;13.424;2024-01-27T05:35:31;5.30;99.90
39919;DHT22;25589;51.552;13.424;2024-01-27T05:37:56;5.50;99.90
39919;DHT22;25589;51.552;13.424;2024-01-27T05:40:22;4.70;99.90
39919;DHT22;25589;51.552;13.424;2024-01-27T05:42:48;5.30;99.90
39919;DHT22;25589;51.552;13.424;2024-01-27T05:45:15;5.70;99.90
39919;DHT22;25589;51.552;13.424;2024-01-27T05:47:41;4.90;99.90
39919;DHT22;25589;51.552;13.424;2024-01-27T05:50:07;5.10;99.90
39919;DHT22;25589;51.552;13.424;2024-01-27T05:52:36;5.10;99.90
39919;DHT22;25589;51.552;13.424;2024-01-27T05:55:02;5.10;99.90
39919;DHT22;25589;51.552;13.424;2024-01-27T05:57:31;5.00;99.90
39919;DHT22;25589;51.552;13.424;2024-01-27T05:59:57;5.10;99.90
39919;DHT22;25589;51.552;13.424;2024-01-27T06:02:22;5.00;99.90
39919;DHT22;25589;51.552;13.424;2024-01-27T06:04:48;5.00;99.90
39919;DHT22;25589;51.552;13.424;2024-01-27T06:07:13;5.00;99.90
39919;DHT22;25589;51.552;13.424;2024-01-27T06:09:39;5.00;99.90
39919;DHT22;25589;51.552;13.424;2024-01-27T06:12:05;5.00;99.90
39919;DHT22;25589;51.552;13.424;2024-01-27T06:14:30;5.00;99.90
39919;DHT22;25589;51.552;13.424;2024-01-27T06:16:56;4.60;99.90
39919;DHT22;25589;51.552;13.424;2024-01-27T06:19:22;5.00;99.90
39919;DHT22;25589;51.552;13.424;2024-01-27T06:21:48;5.00;99.90
39919;DHT22;25589;51.552;13.424;2024-01-27T06:24:13;5.00;99.90
39919;DHT22;25589;51.552;13.424;2024-01-27T06:26:39;5.00;99.90
39919;DHT22;25589;51.552;13.424;2024-01-27T06:29:05;5.10;99.90
39919;DHT22;25589;51.552;13.424;2024-01-27T06:31:30;5.00;99.90
39919;DHT22;25589;51.552;13.424;2024-01-27T06:33:56;4.30;99.90
39919;DHT22;25589;51.552;13.424;2024-01-27T06:36:21;5.00;99.90
39919;DHT22;25589;51.552;13.424;2024-01-27T06:38:50;5.00;99.90
39919;DHT22;25589;51.552;13.424;2024-01-27T06:41:15;5.10;99.90
39919;DHT22;25589;51.552;13.424;2024-01-27T06:43:42;6.00;99.90
39919;DHT22;25589;51.552;13.424;2024-01-27T06:46:08;5.60;99.90
39919;DHT22;25589;51.552;13.424;2024-01-27T06:48:33;5.00;99.90
39919;DHT22;25589;51.552;13.424;2024-01-27T06:50:59;4.70;99.90
39919;DHT22;25589;51.552;13.424;2024-01-27T06:53:25;4.70;99.90
39919;DHT22;25589;51.552;13.424;2024-01-27T06:55:50;5.10;99.90
39919;DHT22;25589;51.552;13.424;2024-01-27T06:58:16;5.10;99.90
39919;DHT22;25589;51.552;13.424;2024-01-27T07:00:41;4.90;99.90
39919;DHT22;25589;51.552;13.424;2024-01-27T07:03:07;5.10;99.90
39919;DHT22;25589;51.552;13.424;2024-01-27T07:05:33;4.80;99.90
39919;DHT22;25589;51.552;13.424;2024-01-27T07:08:05;5.00;99.90
39919;DHT22;25589;51.552;13.424;2024-01-27T07:10:31;5.10;99.90
39919;DHT22;25589;51.552;13.424;2024-01-27T07:12:57;5.10;99.90
39919;DHT22;25589;51.552;13.424;2024-01-27T07:15:22;5.20;99.90
39919;DHT22;25589;51.552;13.424;2024-01-27T07:17:49;5.00;99.90
39919;DHT22;25589;51.552;13.424;2024-01-27T07:20:15;6.30;99.90
39919;DHT22;25589;51.552;13.424;2024-01-27T07:22:41;5.20;99.90
39919;DHT22;25589;51.552;13.424;2024-01-27T07:25:06;5.70;99.90
39919;DHT22;25589;51.552;13.424;2024-01-27T07:27:32;5.20;99.90
39919;DHT22;25589;51.552;13.424;2024-01-27T07:29:58;5.20;99.90
39919;DHT22;25589;51.552;13.424;2024-01-27T07:32:23;5.70;99.90
39919;DHT22;25589;51.552;13.424;2024-01-27T07:34:50;6.00;99.90
39919;DHT22;25589;51.552;13.424;2024-01-27T07:37:15;5.70;99.90
39919;DHT22;25589;51.552;13.424;2024-01-27T07:39:41;5.30;99.90
39919;DHT22;25589;51.552;13.424;2024-01-27T07:42:06;5.70;99.90
39919;DHT22;25589;51.552;13.424;2024-01-27T07:44:32;5.70;99.90
39919;DHT22;25589;51.552;13.424;2024-01-27T07:46:58;5.30;99.90
39919;DHT22;25589;51.552;13.424;2024-01-27T07:49:24;5.00;99.90
39919;DHT22;25589;51.552;13.424;2024-01-27T07:51:49;5.70;99.90
39919;DHT22;25589;51.552;13.424;2024-01-27T07:54:15;4.90;99.90
39919;DHT22;25589;51.552;13.424;2024-01-27T07:56:44;5.20;99.90
39919;DHT22;25589;51.552;13.424;2024-01-27T07:59:10;4.70;99.90
39919;DHT22;25589;51.552;13.424;2024-01-27T08:01:40;5.20;99.90
39919;DHT22;25589;51.552;13.424;2024-01-27T08:04:06;5.20;99.90
39919;DHT22;25589;51.552;13.424;2024-01-27T08:06:32;5.20;99.90
39919;DHT22;25589;51.552;13.424;2024-01-27T08:08:57;5.40;99.90
39919;DHT22;25589;51.552;13.424;2024-01-27T08:11:23;6.30;99.90
39919;DHT22;25589;51.552;13.424;2024-01-27T08:13:50;5.30;99.90
39919;DHT22;25589;51.552;13.424;2024-01-27T08:16:16;5.30;99.90
39919;DHT22;25589;51.552;13.424;2024-01-27T08:18:42;5.30;99.90
39919;DHT22;25589;51.552;13.424;2024-01-27T08:21:10;5.50;99.90
39919;DHT22;25589;51.552;13.424;2024-01-27T08:23:35;6.30;99.90
39919;DHT22;25589;51.552;13.424;2024-01-27T08:26:01;5.40;99.90
39919;DHT22;25589;51.552;13.424;2024-01-27T08:28:27;4.30;99.90
39919;DHT22;25589;51.552;13.424;2024-01-27T08:30:53;5.50;99.90
39919;DHT22;25589;51.552;13.424;2024-01-27T08:33:19;5.50;99.90
39919;DHT22;25589;51.552;13.424;2024-01-27T08:35:48;4.80;99.90
39919;DHT22;25589;51.552;13.424;2024-01-27T08:38:14;5.50;99.90
39919;DHT22;25589;51.552;13.424;2024-01-27T08:40:40;5.60;99.90
39919;DHT22;25589;51.552;13.424;2024-01-27T08:43:06;5.60;99.90
39919;DHT22;25589;51.552;13.424;2024-01-27T08:45:32;5.60;99.90
39919;DHT22;25589;51.552;13.424;2024-01-27T08:47:58;6.20;99.90
39919;DHT22;25589;51.552;13.424;2024-01-27T08:50:24;5.70;99.90
39919;DHT22;25589;51.552;13.424;2024-01-27T08:52:50;5.70;99.90
39919;DHT22;25589;51.552;13.424;2024-01-27T08:55:16;5.10;99.90
39919;DHT22;25589;51.552;13.424;2024-01-27T08:57:47;5.70;99.90
39919;DHT22;25589;51.552;13.424;2024-01-27T09:00:14;5.70;99.90
39919;DHT22;25589;51.552;13.424;2024-01-27T09:02:41;5.80;99.90
39919;DHT22;25589;51.552;13.424;2024-01-27T09:05:06;6.60;99.90
39919;DHT22;25589;51.552;13.424;2024-01-27T09:07:34;6.00;99.90
39919;DHT22;25589;51.552;13.424;2024-01-27T09:10:00;6.70;99.90
39919;DHT22;25589;51.552;13.424;2024-01-27T09:12:26;5.90;99.90
39919;DHT22;25589;51.552;13.424;2024-01-27T09:14:52;6.00;99.90
39919;DHT22;25589;51.552;13.424;2024-01-27T09:17:20;6.00;99.90
39919;DHT22;25589;51.552;13.424;2024-01-27T09:19:46;6.00;99.90
39919;DHT22;25589;51.552;13.424;2024-01-27T09:22:11;6.00;99.90
39919;DHT22;25589;51.552;13.424;2024-01-27T09:24:37;6.70;99.90
39919;DHT22;25589;51.552;13.424;2024-01-27T09:27:03;5.60;99.90
39919;DHT22;25589;51.552;13.424;2024-01-27T09:29:29;6.40;99.90
39919;DHT22;25589;51.552;13.424;2024-01-27T09:31:55;6.10;99.90
39919;DHT22;25589;51.552;13.424;2024-01-27T09:34:21;6.10;99.90
39919;DHT22;25589;51.552;13.424;2024-01-27T09:36:46;6.30;99.90
39919;DHT22;25589;51.552;13.424;2024-01-27T09:39:12;6.20;99.90
39919;DHT22;25589;51.552;13.424;2024-01-27T09:41:38;5.70;99.90
39919;DHT22;25589;51.552;13.424;2024-01-27T09:44:04;6.30;99.90
39919;DHT22;25589;51.552;13.424;2024-01-27T09:46:31;6.30;99.90
39919;DHT22;25589;51.552;13.424;2024-01-27T09:48:58;5.70;99.90
39919;DHT22;25589;51.552;13.424;2024-01-27T09:51:25;6.60;99.90
39919;DHT22;25589;51.552;13.424;2024-01-27T09:53:54;6.70;99.90
39919;DHT22;25589;51.552;13.424;2024-01-27T09:56:19;6.70;99.90
39919;DHT22;25589;51.552;13.424;2024-01-27T09:58:46;6.30;99.90
39919;DHT22;25589;51.552;13.424;2024-01-27T10:01:16;6.90;99.90
39919;DHT22;25589;51.552;13.424;2024-01-27T10:03:43;6.00;99.90
39919;DHT22;25589;51.552;13.424;2024-01-27T10:06:10;6.80;99.90
39919;DHT22;25589;51.552;13.424;2024-01-27T10:08:36;6.60;99.90
39919;DHT22;25589;51.552;13.424;2024-01-27T10:11:09;6.60;99.90
39919;DHT22;25589;51.552;13.424;2024-01-27T10:13:35;6.60;99.90
39919;DHT22;25589;51.552;13.424;2024-01-27T10:16:05;6.60;99.90
39919;DHT22;25589;51.552;13.424;2024-01-27T10:18:32;7.30;99.90
39919;DHT22;25589;51.552;13.424;2024-01-27T10:20:58;9.40;99.90
39919;DHT22;25589;51.552;13.424;2024-01-27T10:23:24;6.70;99.90
39919;DHT22;25589;51.552;13.424;2024-01-27T10:25:52;6.90;99.90
39919;DHT22;25589;51.552;13.424;2024-01-27T10:28:18;6.70;99.90
39919;DHT22;25589;51.552;13.424;2024-01-27T10:30:44;7.30;99.90
39919;DHT22;25589;51.552;13.424;2024-01-27T10:35:39;6.80;99.90
39919;DHT22;25589;51.552;13.424;2024-01-27T10:38:05;6.80;99.90
39919;DHT22;25589;51.552;13.424;2024-01-27T10:40:30;6.80;99.90
39919;DHT22;25589;51.552;13.424;2024-01-27T10:43:07;6.70;99.90
39919;DHT22;25589;51.552;13.424;2024-01-27T10:45:38;6.70;99.90
39919;DHT22;25589;51.552;13.424;2024-01-27T10:48:06;6.80;99.90
39919;DHT22;25589;51.552;13.424;2024-01-27T10:50:37;7.00;99.90
39919;DHT22;25589;51.552;13.424;2024-01-27T10:53:09;6.80;99.90
39919;DHT22;25589;51.552;13.424;2024-01-27T10:55:44;6.90;99.90
39919;DHT22;25589;51.552;13.424;2024-01-27T10:58:12;7.30;99.90
39919;DHT22;25589;51.552;13.424;2024-01-27T11:00:38;7.40;99.90
39919;DHT22;25589;51.552;13.424;2024-01-27T11:03:06;6.00;99.90
39919;DHT22;25589;51.552;13.424;2024-01-27T11:05:35;7.40;99.90
39919;DHT22;25589;51.552;13.424;2024-01-27T11:08:02;7.10;99.90
39919;DHT22;25589;51.552;13.424;2024-01-27T11:10:29;7.40;99.90
39919;DHT22;25589;51.552;13.424;2024-01-27T11:13:02;7.10;99.90
39919;DHT22;25589;51.552;13.424;2024-01-27T11:15:28;7.20;99.90
39919;DHT22;25589;51.552;13.424;2024-01-27T11:17:57;7.80;99.90
39919;DHT22;25589;51.552;13.424;2024-01-27T11:20:25;7.50;99.90
39919;DHT22;25589;51.552;13.424;2024-01-27T11:22:51;7.30;99.90
39919;DHT22;25589;51.552;13.424;2024-01-27T11:25:18;7.30;99.90
39919;DHT22;25589;51.552;13.424;2024-01-27T11:27:45;7.40;99.90
39919;DHT22;25589;51.552;13.424;2024-01-27T11:32:56;8.00;99.90
39919;DHT22;25589;51.552;13.424;2024-01-27T11:35:22;8.10;99.90
39919;DHT22;25589;51.552;13.424;2024-01-27T11:37:47;7.40;99.90
39919;DHT22;25589;51.552;13.424;2024-01-27T11:40:14;7.70;99.90
39919;DHT22;25589;51.552;13.424;2024-01-27T11:42:41;7.50;99.90
39919;DHT22;25589;51.552;13.424;2024-01-27T11:47:34;8.20;99.90
39919;DHT22;25589;51.552;13.424;2024-01-27T11:50:00;7.50;99.90
39919;DHT22;25589;51.552;13.424;2024-01-27T11:52:27;7.60;99.90
39919;DHT22;25589;51.552;13.424;2024-01-27T11:54:54;7.70;99.90
39919;DHT22;25589;51.552;13.424;2024-01-27T11:57:20;7.90;99.90
39919;DHT22;25589;51.552;13.424;2024-01-27T11:59:46;7.90;99.90
39919;DHT22;25589;51.552;13.424;2024-01-27T12:02:12;7.90;99.90
39919;DHT22;25589;51.552;13.424;2024-01-27T12:04:37;8.30;99.90
39919;DHT22;25589;51.552;13.424;2024-01-27T12:07:03;8.10;99.90
39919;DHT22;25589;51.552;13.424;2024-01-27T12:09:29;8.20;99.90
39919;DHT22;25589;51.552;13.424;2024-01-27T12:11:55;9.20;99.90
39919;DHT22;25589;51.552;13.424;2024-01-27T12:14:21;7.10;99.90
39919;DHT22;25589;51.552;13.424;2024-01-27T12:16:46;8.40;99.90
39919;DHT22;25589;51.552;13.424;2024-01-27T12:19:13;7.70;99.90
39919;DHT22;25589;51.552;13.424;2024-01-27T12:21:46;8.80;99.90
39919;DHT22;25589;51.552;13.424;2024-01-27T12:24:15;8.40;99.90
39919;DHT22;25589;51.552;13.424;2024-01-27T12:26:41;8.30;99.90
39919;DHT22;25589;51.552;13.424;2024-01-27T12:29:07;8.30;99.90
39919;DHT22;25589;51.552;13.424;2024-01-27T12:31:33;8.50;99.90
39919;DHT22;25589;51.552;13.424;2024-01-27T12:33:59;8.40;99.90
39919;DHT22;25589;51.552;13.424;2024-01-27T12:36:24;8.30;99.90
39919;DHT22;25589;51.552;13.424;2024-01-27T12:39:00;9.00;99.90
39919;DHT22;25589;51.552;13.424;2024-01-27T12:43:54;8.90;99.90
39919;DHT22;25589;51.552;13.424;2024-01-27T12:46:20;9.10;99.90
39919;DHT22;25589;51.552;13.424;2024-01-27T12:48:45;9.10;99.90
39919;DHT22;25589;51.552;13.424;2024-01-27T12:51:12;9.20;99.90
39919;DHT22;25589;51.552;13.424;2024-01-27T12:53:39;9.30;99.90
39919;DHT22;25589;51.552;13.424;2024-01-27T12:56:08;9.30;99.90
39919;DHT22;25589;51.552;13.424;2024-01-27T12:58:34;9.50;99.90
39919;DHT22;25589;51.552;13.424;2024-01-27T13:00:59;9.70;99.90
39919;DHT22;25589;51.552;13.424;2024-01-27T13:03:25;9.70;99.90
39919;DHT22;25589;51.552;13.424;2024-01-27T13:05:53;9.80;99.90
39919;DHT22;25589;51.552;13.424;2024-01-27T13:08:19;9.70;99.90
39919;DHT22;25589;51.552;13.424;2024-01-27T13:10:44;9.80;99.90
39919;DHT22;25589;51.552;13.424;2024-01-27T13:13:10;9.70;99.90
39919;DHT22;25589;51.552;13.424;2024-01-27T13:15:35;9.60;99.90
39919;DHT22;25589;51.552;13.424;2024-01-27T13:18:01;9.30;99.90
39919;DHT22;25589;51.552;13.424;2024-01-27T13:20:26;9.60;99.90
39919;DHT22;25589;51.552;13.424;2024-01-27T13:22:52;9.60;99.90
39919;DHT22;25589;51.552;13.424;2024-01-27T13:25:19;9.70;99.90
39919;DHT22;25589;51.552;13.424;2024-01-27T13:27:45;9.70;99.90
39919;DHT22;25589;51.552;13.424;2024-01-27T13:30:11;9.40;99.90
39919;DHT22;25589;51.552;13.424;2024-01-27T13:32:39;9.90;99.90
39919;DHT22;25589;51.552;13.424;2024-01-27T13:35:05;9.90;99.90
39919;DHT22;25589;51.552;13.424;2024-01-27T13:37:31;10.00;99.90
39919;DHT22;25589;51.552;13.424;2024-01-27T13:40:02;9.90;99.90
39919;DHT22;25589;51.552;13.424;2024-01-27T13:42:29;9.40;99.90
39919;DHT22;25589;51.552;13.424;2024-01-27T13:44:55;10.00;99.90
39919;DHT22;25589;51.552;13.424;2024-01-27T13:47:20;10.10;99.90
39919;DHT22;25589;51.552;13.424;2024-01-27T13:49:46;9.90;99.90
39919;DHT22;25589;51.552;13.424;2024-01-27T13:52:13;10.10;99.90
39919;DHT22;25589;51.552;13.424;2024-01-27T13:54:38;10.60;99.90
39919;DHT22;25589;51.552;13.424;2024-01-27T13:57:04;10.00;99.90
39919;DHT22;25589;51.552;13.424;2024-01-27T13:59:30;10.40;99.90
39919;DHT22;25589;51.552;13.424;2024-01-27T14:01:56;10.30;99.90
39919;DHT22;25589;51.552;13.424;2024-01-27T14:04:25;10.20;99.90
39919;DHT22;25589;51.552;13.424;2024-01-27T14:06:52;10.30;99.90
39919;DHT22;25589;51.552;13.424;2024-01-27T14:09:28;10.20;99.90
39919;DHT22;25589;51.552;13.424;2024-01-27T14:11:53;10.30;99.90
39919;DHT22;25589;51.552;13.424;2024-01-27T14:14:19;10.30;99.90
39919;DHT22;25589;51.552;13.424;2024-01-27T14:16:46;10.30;99.90
39919;DHT22;25589;51.552;13.424;2024-01-27T14:19:12;10.30;99.90
39919;DHT22;25589;51.552;13.424;2024-01-27T14:21:38;10.40;99.90
39919;DHT22;25589;51.552;13.424;2024-01-27T14:24:06;10.60;99.90
39919;DHT22;25589;51.552;13.424;2024-01-27T14:26:32;10.60;99.90
39919;DHT22;25589;51.552;13.424;2024-01-27T14:28:58;10.50;99.90
39919;DHT22;25589;51.552;13.424;2024-01-27T14:31:23;10.90;99.90
39919;DHT22;25589;51.552;13.424;2024-01-27T14:33:49;10.90;99.90
39919;DHT22;25589;51.552;13.424;2024-01-27T14:36:15;11.40;99.90
39919;DHT22;25589;51.552;13.424;2024-01-27T14:38:41;10.90;99.90
39919;DHT22;25589;51.552;13.424;2024-01-27T14:41:07;10.80;99.90
39919;DHT22;25589;51.552;13.424;2024-01-27T14:43:33;10.80;99.90
39919;DHT22;25589;51.552;13.424;2024-01-27T14:45:58;10.70;99.90
39919;DHT22;25589;51.552;13.424;2024-01-27T14:48:24;10.60;99.90
39919;DHT22;25589;51.552;13.424;2024-01-27T14:50:51;10.20;99.90
39919;DHT22;25589;51.552;13.424;2024-01-27T14:53:33;10.30;99.90
39919;DHT22;25589;51.552;13.424;2024-01-27T14:55:58;9.80;99.90
39919;DHT22;25589;51.552;13.424;2024-01-27T14:58:24;10.00;99.90
39919;DHT22;25589;51.552;13.424;2024-01-27T15:00:50;9.70;99.90
39919;DHT22;25589;51.552;13.424;2024-01-27T15:03:22;9.60;99.90
39919;DHT22;25589;51.552;13.424;2024-01-27T15:05:49;9.60;99.90
39919;DHT22;25589;51.552;13.424;2024-01-27T15:08:19;9.60;99.90
39919;DHT22;25589;51.552;13.424;2024-01-27T15:10:45;9.30;99.90
39919;DHT22;25589;51.552;13.424;2024-01-27T15:13:12;9.40;99.90
39919;DHT22;25589;51.552;13.424;2024-01-27T15:15:39;8.70;99.90
39919;DHT22;25589;51.552;13.424;2024-01-27T15:18:06;9.30;99.90
39919;DHT22;25589;51.552;13.424;2024-01-27T15:20:32;9.50;99.90
39919;DHT22;25589;51.552;13.424;2024-01-27T15:22:57;8.90;99.90
39919;DHT22;25589;51.552;13.424;2024-01-27T15:25:23;9.20;99.90
39919;DHT22;25589;51.552;13.424;2024-01-27T15:27:50;9.00;99.90
39919;DHT22;25589;51.552;13.424;2024-01-27T15:30:19;8.90;99.90
39919;DHT22;25589;51.552;13.424;2024-01-27T15:32:48;8.60;99.90
39919;DHT22;25589;51.552;13.424;2024-01-27T15:35:14;8.70;99.90
39919;DHT22;25589;51.552;13.424;2024-01-27T15:37:40;8.70;99.90
39919;DHT22;25589;51.552;13.424;2024-01-27T15:42:32;8.50;99.90
39919;DHT22;25589;51.552;13.424;2024-01-27T15:44:57;8.50;99.90
39919;DHT22;25589;51.552;13.424;2024-01-27T15:47:23;8.90;99.90
39919;DHT22;25589;51.552;13.424;2024-01-27T15:49:50;8.30;99.90
39919;DHT22;25589;51.552;13.424;2024-01-27T15:52:22;8.10;99.90
39919;DHT22;25589;51.552;13.424;2024-01-27T15:54:48;8.10;99.90
39919;DHT22;25589;51.552;13.424;2024-01-27T15:57:14;8.00;99.90
39919;DHT22;25589;51.552;13.424;2024-01-27T15:59:40;8.50;99.90